createdAt,value
2023-11-06T00:01:12.152Z,12.90
2023-11-06T00:03:39.068Z,12.90
2023-11-06T00:06:06.233Z,12.90
2023-11-06T00:08:33.189Z,12.90
2023-11-06T00:11:00.152Z,12.90
2023-11-06T00:13:27.060Z,12.80
2023-11-06T00:15:53.970Z,12.80
2023-11-06T00:18:20.911Z,12.90
2023-11-06T00:20:47.821Z,12.90
2023-11-06T00:23:14.707Z,12.80
2023-11-06T00:25:41.552Z,12.80
2023-11-06T00:28:08.390Z,12.80
2023-11-06T00:30:35.241Z,12.80
2023-11-06T00:33:02.153Z,12.90
2023-11-06T00:35:29.047Z,12.80
2023-11-06T00:37:55.981Z,12.80
2023-11-06T00:40:23.313Z,12.80
2023-11-06T00:42:50.924Z,12.80
2023-11-06T00:45:18.016Z,12.80
2023-11-06T00:47:45.024Z,12.80
2023-11-06T00:50:12.240Z,12.80
2023-11-06T00:52:39.802Z,12.90
2023-11-06T00:55:06.940Z,12.90
2023-11-06T00:57:33.840Z,12.90
2023-11-06T01:00:00.774Z,12.90
2023-11-06T01:02:30.143Z,13.00
2023-11-06T01:04:57.840Z,12.90
2023-11-06T01:07:24.968Z,13.00
2023-11-06T01:09:52.457Z,13.00
2023-11-06T01:12:19.540Z,13.00
2023-11-06T01:14:46.928Z,13.10
2023-11-06T01:17:14.037Z,13.10
2023-11-06T01:19:41.067Z,13.10
2023-11-06T01:22:08.253Z,13.10
2023-11-06T01:24:35.447Z,13.10
2023-11-06T01:27:02.610Z,13.20
2023-11-06T01:29:31.007Z,13.10
2023-11-06T01:31:58.170Z,13.20
2023-11-06T01:34:25.668Z,13.30
2023-11-06T01:36:52.911Z,13.50
2023-11-06T01:39:20.168Z,13.30
2023-11-06T01:41:48.110Z,13.10
2023-11-06T01:44:15.560Z,13.10
2023-11-06T01:46:43.222Z,13.20
2023-11-06T01:49:10.752Z,13.20
2023-11-06T01:51:40.642Z,13.20
2023-11-06T01:54:08.247Z,13.70
2023-11-06T01:56:38.483Z,13.40
2023-11-06T01:59:06.186Z,13.70
2023-11-06T02:01:38.942Z,13.20
2023-11-06T02:04:07.725Z,13.20
2023-11-06T02:06:35.397Z,13.20
2023-11-06T02:09:04.759Z,13.40
2023-11-06T02:11:32.157Z,13.30
2023-11-06T02:14:00.542Z,13.10
2023-11-06T02:16:27.605Z,13.40
2023-11-06T02:18:54.717Z,13.10
2023-11-06T02:21:21.759Z,13.10
2023-11-06T02:23:50.359Z,13.10
2023-11-06T02:26:17.949Z,13.10
2023-11-06T02:28:52.780Z,13.10
2023-11-06T02:31:20.573Z,13.00
2023-11-06T02:33:47.793Z,13.10
2023-11-06T02:36:15.210Z,13.30
2023-11-06T02:38:42.329Z,13.50
2023-11-06T02:41:10.080Z,13.10
2023-11-06T02:43:37.514Z,13.10
2023-11-06T02:46:04.832Z,13.30
2023-11-06T02:48:32.882Z,13.50
2023-11-06T02:51:00.066Z,13.30
2023-11-06T02:53:27.393Z,13.00
2023-11-06T02:55:57.461Z,12.70
2023-11-06T02:58:24.638Z,13.00
2023-11-06T03:00:52.009Z,13.20
2023-11-06T03:03:21.850Z,13.40
2023-11-06T03:05:49.572Z,13.00
2023-11-06T03:08:18.178Z,12.90
2023-11-06T03:10:45.784Z,13.20
2023-11-06T03:13:15.514Z,13.20
2023-11-06T03:15:42.967Z,12.90
2023-11-06T03:18:11.591Z,13.40
2023-11-06T03:20:40.149Z,12.80
2023-11-06T03:23:07.767Z,12.80
2023-11-06T03:25:35.071Z,12.90
2023-11-06T03:28:02.216Z,13.30
2023-11-06T03:30:29.546Z,13.00
2023-11-06T03:32:56.679Z,13.10
2023-11-06T03:35:24.636Z,13.20
2023-11-06T03:37:52.261Z,13.10
2023-11-06T03:40:19.301Z,13.20
2023-11-06T03:42:46.340Z,13.10
2023-11-06T03:45:13.609Z,12.70
2023-11-06T03:47:40.844Z,13.10
2023-11-06T03:50:09.550Z,13.10
2023-11-06T03:52:36.656Z,12.60
2023-11-06T03:55:04.989Z,12.70
2023-11-06T03:57:32.290Z,12.60
2023-11-06T03:59:59.276Z,12.60
2023-11-06T04:02:26.325Z,13.20
2023-11-06T04:04:53.512Z,12.60
2023-11-06T04:07:20.668Z,12.20
2023-11-06T04:09:47.643Z,12.60
2023-11-06T04:12:14.656Z,13.10
2023-11-06T04:14:41.771Z,12.60
2023-11-06T04:17:09.406Z,12.60
2023-11-06T04:19:36.606Z,12.60
2023-11-06T04:22:03.721Z,13.20
2023-11-06T04:24:30.926Z,13.20
2023-11-06T04:26:58.040Z,12.90
2023-11-06T04:29:26.100Z,13.20
2023-11-06T04:31:53.175Z,12.80
2023-11-06T04:34:20.194Z,12.70
2023-11-06T04:36:47.280Z,12.90
2023-11-06T04:39:14.381Z,12.20
2023-11-06T04:41:42.394Z,12.70
2023-11-06T04:44:09.627Z,12.70
2023-11-06T04:46:36.634Z,12.60
2023-11-06T04:49:03.708Z,12.70
2023-11-06T04:51:30.807Z,12.60
2023-11-06T04:53:57.913Z,12.60
2023-11-06T04:56:24.983Z,12.80
2023-11-06T04:58:52.223Z,12.70
2023-11-06T05:01:19.657Z,12.60
2023-11-06T05:03:47.353Z,12.70
2023-11-06T05:06:17.455Z,12.60
2023-11-06T05:08:52.140Z,12.60
2023-11-06T05:11:19.436Z,12.50
2023-11-06T05:13:46.870Z,12.80
2023-11-06T05:16:15.051Z,12.50
2023-11-06T05:18:42.378Z,12.50
2023-11-06T05:21:09.755Z,12.70
2023-11-06T05:23:40.037Z,12.80
2023-11-06T05:26:08.302Z,12.50
2023-11-06T05:28:35.604Z,12.50
2023-11-06T05:31:02.964Z,12.60
2023-11-06T05:33:30.322Z,12.40
2023-11-06T05:35:58.127Z,12.60
2023-11-06T05:38:26.747Z,12.70
2023-11-06T05:41:01.157Z,12.60
2023-11-06T05:43:29.638Z,12.60
2023-11-06T05:50:08.133Z,12.60
2023-11-06T05:52:50.401Z,12.30
2023-11-06T05:55:25.864Z,12.50
2023-11-06T05:58:10.448Z,12.30
2023-11-06T06:00:42.326Z,12.20
2023-11-06T06:03:10.880Z,12.20
2023-11-06T06:05:38.094Z,12.20
2023-11-06T06:08:05.333Z,12.60
2023-11-06T06:10:33.312Z,12.10
2023-11-06T06:13:01.029Z,12.10
2023-11-06T06:15:28.171Z,12.60
2023-11-06T06:17:55.248Z,12.50
2023-11-06T06:20:22.434Z,12.60
2023-11-06T06:22:49.336Z,12.40
2023-11-06T06:25:16.778Z,12.10
2023-11-06T06:27:43.840Z,12.00
2023-11-06T06:30:12.412Z,12.10
2023-11-06T06:32:39.494Z,12.00
2023-11-06T06:35:06.729Z,12.00
2023-11-06T06:37:33.706Z,12.00
2023-11-06T06:40:00.738Z,12.00
2023-11-06T06:42:27.664Z,12.00
2023-11-06T06:44:54.894Z,12.00
2023-11-06T06:47:22.204Z,11.90
2023-11-06T06:49:49.359Z,12.00
2023-11-06T06:52:16.651Z,12.00
2023-11-06T06:54:58.079Z,12.30
2023-11-06T06:57:25.597Z,11.70
2023-11-06T06:59:52.704Z,12.50
2023-11-06T07:02:26.294Z,12.60
2023-11-06T07:05:49.434Z,12.30
2023-11-06T07:17:13.664Z,13.10
2023-11-06T07:19:41.100Z,13.50
2023-11-06T07:22:08.285Z,13.80
2023-11-06T07:24:37.415Z,14.20
2023-11-06T07:27:07.801Z,14.20
2023-11-06T07:29:35.721Z,14.90
2023-11-06T07:32:03.826Z,15.20
2023-11-06T07:34:32.026Z,15.40
2023-11-06T07:37:02.171Z,15.50
2023-11-06T07:39:42.508Z,15.60
2023-11-06T07:42:12.519Z,15.90
2023-11-06T07:44:46.317Z,16.00
2023-11-06T07:47:14.868Z,16.40
2023-11-06T07:49:42.164Z,16.20
2023-11-06T07:52:11.549Z,16.80
2023-11-06T07:54:42.459Z,17.70
2023-11-06T07:57:12.928Z,17.80
2023-11-06T07:59:43.962Z,18.00
2023-11-06T08:02:12.861Z,18.20
2023-11-06T08:04:44.926Z,18.00
2023-11-06T08:07:14.723Z,18.20
2023-11-06T08:09:44.882Z,18.80
2023-11-06T08:12:14.402Z,18.90
2023-11-06T08:15:20.923Z,18.90
2023-11-06T08:21:23.605Z,19.30
2023-11-06T08:24:15.480Z,19.90
2023-11-06T08:26:52.083Z,19.80
2023-11-06T08:29:35.802Z,20.00
2023-11-06T08:32:16.006Z,20.50
2023-11-06T08:34:43.528Z,20.80
2023-11-06T08:37:13.528Z,20.60
2023-11-06T08:39:45.134Z,20.90
2023-11-06T08:42:15.905Z,21.10
2023-11-06T08:44:43.737Z,21.20
2023-11-06T08:47:11.385Z,21.50
2023-11-06T08:49:38.701Z,21.70
2023-11-06T08:52:06.102Z,21.90
2023-11-06T08:54:35.118Z,22.20
2023-11-06T08:57:03.579Z,22.40
2023-11-06T08:59:30.591Z,22.60
2023-11-06T09:01:57.520Z,22.80
2023-11-06T09:04:24.399Z,23.10
2023-11-06T09:06:51.237Z,23.20
2023-11-06T09:09:18.085Z,23.50
2023-11-06T09:11:45.530Z,23.70
2023-11-06T09:14:13.180Z,23.90
2023-11-06T09:16:40.516Z,23.90
2023-11-06T09:19:08.723Z,24.00
2023-11-06T09:21:36.642Z,23.90
2023-11-06T09:24:03.796Z,23.90
2023-11-06T09:26:30.984Z,23.90
2023-11-06T09:28:58.485Z,24.10
2023-11-06T09:31:25.527Z,24.10
2023-11-06T09:33:52.441Z,24.20
2023-11-06T09:36:19.939Z,24.40
2023-11-06T09:38:46.962Z,24.60
2023-11-06T09:41:13.962Z,24.80
2023-11-06T09:43:44.523Z,25.00
2023-11-06T09:46:13.403Z,25.30
2023-11-06T09:48:41.514Z,25.50
2023-11-06T09:51:13.658Z,25.70
2023-11-06T09:53:45.516Z,25.80
2023-11-06T09:56:13.099Z,25.80
2023-11-06T09:58:40.890Z,25.80
2023-11-06T10:01:08.764Z,25.70
2023-11-06T10:03:40.671Z,25.50
2023-11-06T10:06:08.833Z,25.30
2023-11-06T10:08:40.494Z,25.00
2023-11-06T10:11:08.379Z,24.60
2023-11-06T10:13:51.894Z,24.30
2023-11-06T10:16:23.739Z,23.90
2023-11-06T10:19:10.292Z,23.70
2023-11-06T10:21:37.531Z,23.40
2023-11-06T10:24:06.773Z,23.10
2023-11-06T10:26:33.918Z,22.90
2023-11-06T10:29:12.113Z,22.80
2023-11-06T10:31:40.967Z,22.60
2023-11-06T10:34:27.161Z,22.40
2023-11-06T10:37:07.967Z,22.10
2023-11-06T10:39:35.259Z,21.80
2023-11-06T10:42:07.072Z,21.50
2023-11-06T10:44:35.392Z,21.30
2023-11-06T10:47:10.356Z,21.20
2023-11-06T10:49:54.558Z,21.30
2023-11-06T10:52:24.122Z,21.60
2023-11-06T10:54:52.677Z,21.90
2023-11-06T10:57:20.591Z,22.20
2023-11-06T10:59:48.364Z,22.50
2023-11-06T11:02:39.854Z,22.80
2023-11-06T11:05:09.130Z,23.10
2023-11-06T11:07:37.355Z,23.10
2023-11-06T11:10:08.641Z,23.10
2023-11-06T11:12:39.573Z,23.00
2023-11-06T11:15:10.930Z,22.80
2023-11-06T11:17:38.100Z,22.60
2023-11-06T11:20:10.413Z,22.20
2023-11-06T11:23:03.752Z,21.90
2023-11-06T11:26:00.801Z,21.50
2023-11-06T11:28:29.369Z,21.10
2023-11-06T11:31:16.522Z,20.80
2023-11-06T11:33:57.075Z,20.50
2023-11-06T11:36:35.324Z,20.20
2023-11-06T11:39:07.342Z,19.90
2023-11-06T11:41:34.555Z,19.70
2023-11-06T11:44:07.052Z,19.50
2023-11-06T11:46:34.759Z,19.50
2023-11-06T11:49:01.896Z,19.30
2023-11-06T11:51:48.047Z,19.20
2023-11-06T11:54:32.270Z,19.10
2023-11-06T11:57:05.333Z,19.00
2023-11-06T11:59:51.902Z,19.00
2023-11-06T12:02:29.421Z,18.90
2023-11-06T12:05:19.090Z,18.80
2023-11-06T12:07:47.061Z,18.80
2023-11-06T12:10:17.239Z,18.80
2023-11-06T12:12:45.127Z,18.80
2023-11-06T12:15:12.488Z,18.50
2023-11-06T12:17:40.649Z,18.80
2023-11-06T12:20:15.562Z,18.70
2023-11-06T12:22:49.834Z,18.70
2023-11-06T12:25:35.003Z,18.60
2023-11-06T12:28:10.125Z,18.50
2023-11-06T12:30:39.955Z,18.40
2023-11-06T12:33:24.610Z,18.20
2023-11-06T12:35:52.760Z,18.20
2023-11-06T12:38:39.776Z,18.10
2023-11-06T12:41:07.297Z,18.00
2023-11-06T12:43:35.894Z,17.90
2023-11-06T12:46:03.713Z,17.80
2023-11-06T12:48:35.329Z,17.70
2023-11-06T12:51:11.569Z,17.60
2023-11-06T12:53:43.681Z,17.50
2023-11-06T12:56:11.470Z,17.50
2023-11-06T12:58:38.768Z,17.40
2023-11-06T13:01:21.315Z,17.30
2023-11-06T13:03:49.534Z,17.20
2023-11-06T13:06:19.239Z,17.10
2023-11-06T13:08:46.693Z,17.00
2023-11-06T13:11:19.337Z,17.00
2023-11-06T13:13:55.241Z,16.90
2023-11-06T13:16:22.976Z,16.80
2023-11-06T13:18:50.519Z,16.80
2023-11-06T13:21:20.611Z,16.70
2023-11-06T13:23:48.660Z,16.60
2023-11-06T13:26:20.344Z,16.60
2023-11-06T13:28:50.755Z,16.60
2023-11-06T13:31:17.767Z,16.50
2023-11-06T13:33:47.679Z,16.50
2023-11-06T13:36:16.596Z,16.40
2023-11-06T13:38:44.509Z,16.40
2023-11-06T13:41:19.581Z,16.40
2023-11-06T13:43:46.813Z,16.30
2023-11-06T13:46:13.768Z,16.30
2023-11-06T13:48:44.099Z,16.20
2023-11-06T13:51:15.420Z,16.20
2023-11-06T13:53:49.372Z,16.10
2023-11-06T13:56:29.751Z,16.10
2023-11-06T13:58:58.844Z,16.00
2023-11-06T14:01:44.507Z,15.90
2023-11-06T14:04:12.100Z,15.90
2023-11-06T14:06:39.392Z,15.80
2023-11-06T14:09:26.479Z,15.80
2023-11-06T14:11:53.306Z,15.80
2023-11-06T14:14:20.188Z,15.70
2023-11-06T14:16:48.032Z,15.70
2023-11-06T14:19:14.936Z,15.80
2023-11-06T14:21:41.827Z,15.70
2023-11-06T14:24:09.449Z,15.70
2023-11-06T14:26:36.355Z,15.70
2023-11-06T14:29:03.234Z,15.70
2023-11-06T14:31:32.404Z,15.70
2023-11-06T14:34:16.411Z,15.70
2023-11-06T14:36:43.461Z,15.70
2023-11-06T14:39:15.229Z,15.70
2023-11-06T14:41:42.353Z,15.70
2023-11-06T14:44:14.807Z,15.70
2023-11-06T14:46:41.693Z,15.70
2023-11-06T14:49:10.098Z,15.70
2023-11-06T14:51:37.469Z,15.70
2023-11-06T14:54:04.619Z,15.70
2023-11-06T14:56:31.673Z,15.70
2023-11-06T14:58:58.669Z,15.70
2023-11-06T15:01:25.546Z,15.60
2023-11-06T15:03:52.622Z,15.60
2023-11-06T15:06:19.747Z,15.60
2023-11-06T15:08:48.358Z,15.60
2023-11-06T15:11:19.617Z,15.60
2023-11-06T15:13:47.363Z,15.60
2023-11-06T15:16:14.454Z,15.60
2023-11-06T15:18:43.545Z,15.50
2023-11-06T15:21:12.651Z,15.50
2023-11-06T15:23:39.681Z,15.40
2023-11-06T15:26:06.529Z,15.40
2023-11-06T15:28:33.396Z,15.40
2023-11-06T15:31:00.290Z,15.30
2023-11-06T15:33:27.260Z,15.30
2023-11-06T15:35:54.252Z,15.30
2023-11-06T15:38:21.234Z,15.30
2023-11-06T15:40:48.455Z,15.30
2023-11-06T15:43:15.616Z,15.20
2023-11-06T15:45:42.917Z,15.20
2023-11-06T15:48:11.184Z,15.20
2023-11-06T15:50:41.911Z,15.10
2023-11-06T15:53:12.236Z,15.10
2023-11-06T15:55:44.453Z,15.10
2023-11-06T15:58:14.904Z,15.00
2023-11-06T16:00:42.885Z,15.00
2023-11-06T16:03:09.919Z,14.90
2023-11-06T16:05:37.479Z,14.90
2023-11-06T16:08:05.063Z,14.90
2023-11-06T16:10:33.412Z,14.90
2023-11-06T16:13:03.783Z,14.80
2023-11-06T16:15:31.013Z,14.80
2023-11-06T16:17:58.270Z,14.80
2023-11-06T16:20:27.445Z,14.70
2023-11-06T16:22:55.747Z,14.70
2023-11-06T16:25:22.812Z,14.60
2023-11-06T16:27:49.689Z,14.60
2023-11-06T16:30:16.749Z,14.50
2023-11-06T16:32:43.788Z,14.50
2023-11-06T16:35:11.042Z,14.50
2023-11-06T16:37:38.665Z,14.60
2023-11-06T16:40:11.283Z,14.40
2023-11-06T16:42:39.258Z,14.40
2023-11-06T16:45:06.754Z,14.40
2023-11-06T16:47:33.732Z,14.30
2023-11-06T16:50:00.748Z,14.30
2023-11-06T16:52:27.731Z,14.30
2023-11-06T16:58:18.558Z,14.30
2023-11-06T17:01:35.184Z,14.30
2023-11-06T17:04:42.332Z,14.20
2023-11-06T17:07:23.171Z,14.10
2023-11-06T17:10:04.910Z,14.40
2023-11-06T17:12:45.789Z,13.90
2023-11-06T17:15:42.086Z,13.90
2023-11-06T17:18:40.662Z,13.80
2023-11-06T17:21:13.884Z,13.70
2023-11-06T17:23:52.158Z,13.70
2023-11-06T17:26:52.397Z,13.50
2023-11-06T17:29:24.913Z,13.40
2023-11-06T17:31:54.874Z,13.30
2023-11-06T17:34:37.769Z,13.80
2023-11-06T17:37:16.204Z,13.20
2023-11-06T17:40:19.704Z,13.20
2023-11-06T17:42:50.275Z,13.10
2023-11-06T17:45:25.354Z,12.50
2023-11-06T17:48:04.359Z,13.00
2023-11-06T17:54:38.617Z,12.90
2023-11-06T17:57:05.838Z,12.90
2023-11-06T17:59:35.766Z,12.90
2023-11-06T18:02:02.909Z,12.80
2023-11-06T18:04:30.174Z,12.70
2023-11-06T18:06:59.729Z,13.20
2023-11-06T18:09:26.822Z,12.70
2023-11-06T18:11:53.835Z,12.40
2023-11-06T18:14:20.805Z,12.60
2023-11-06T18:16:47.821Z,12.60
2023-11-06T18:19:23.893Z,12.90
2023-11-06T18:22:02.193Z,13.10
2023-11-06T18:24:30.255Z,12.00
2023-11-06T18:26:57.413Z,12.10
2023-11-06T18:29:24.728Z,12.90
2023-11-06T18:31:54.082Z,12.70
2023-11-06T18:34:27.238Z,13.00
2023-11-06T18:36:54.662Z,12.50
2023-11-06T18:39:22.330Z,12.40
2023-11-06T18:42:04.985Z,12.70
2023-11-06T18:44:36.749Z,12.40
2023-11-06T18:47:09.092Z,12.40
2023-11-06T18:49:39.855Z,12.80
2023-11-06T18:52:08.333Z,12.40
2023-11-06T18:54:36.211Z,12.60
2023-11-06T18:57:05.607Z,12.70
2023-11-06T18:59:35.604Z,12.30
2023-11-06T19:02:03.016Z,12.70
2023-11-06T19:04:33.205Z,12.30
2023-11-06T19:07:01.792Z,12.30
2023-11-06T19:09:29.791Z,12.20
2023-11-06T19:11:56.738Z,12.20
2023-11-06T19:14:24.030Z,12.20
2023-11-06T19:16:51.742Z,12.20
2023-11-06T19:19:21.142Z,12.20
2023-11-06T19:21:49.386Z,12.20
2023-11-06T19:24:23.231Z,12.40
2023-11-06T19:26:51.740Z,12.20
2023-11-06T19:29:19.852Z,12.20
2023-11-06T19:31:51.535Z,12.20
2023-11-06T19:34:19.922Z,12.20
2023-11-06T19:36:48.228Z,12.20
2023-11-06T19:39:16.072Z,12.20
2023-11-06T19:41:46.472Z,12.30
2023-11-06T19:44:15.324Z,12.20
2023-11-06T19:46:43.047Z,12.30
2023-11-06T19:49:10.638Z,12.30
2023-11-06T19:51:41.218Z,12.30
2023-11-06T19:54:11.588Z,12.30
2023-11-06T19:56:40.191Z,12.30
2023-11-06T20:01:37.519Z,12.30
2023-11-06T20:04:09.128Z,12.30
2023-11-06T20:06:36.172Z,12.30
2023-11-06T20:09:03.126Z,12.40
2023-11-06T20:11:30.007Z,12.30
2023-11-06T20:13:58.552Z,12.30
2023-11-06T20:16:25.489Z,12.20
2023-11-06T20:18:52.898Z,12.30
2023-11-06T20:21:19.971Z,12.30
2023-11-06T20:23:47.092Z,12.30
2023-11-06T20:26:14.086Z,12.30
2023-11-06T20:28:43.133Z,12.30
2023-11-06T20:31:10.286Z,12.30
2023-11-06T20:33:37.360Z,12.20
2023-11-06T20:36:08.160Z,12.20
2023-11-06T20:38:35.040Z,12.20
2023-11-06T20:41:02.170Z,12.20
2023-11-06T20:43:29.744Z,12.20
2023-11-06T20:45:57.058Z,12.20
2023-11-06T20:48:24.645Z,12.20
2023-11-06T20:50:51.729Z,12.20
2023-11-06T20:53:19.194Z,12.20
2023-11-06T20:55:47.550Z,12.20
2023-11-06T20:58:15.005Z,12.60
2023-11-06T21:00:41.881Z,12.20
2023-11-06T21:03:08.822Z,12.20
2023-11-06T21:05:35.871Z,12.20
2023-11-06T21:08:02.839Z,12.20
2023-11-06T21:10:29.773Z,12.20
2023-11-06T21:12:56.611Z,12.10
2023-11-06T21:15:23.855Z,12.30
2023-11-06T21:17:51.105Z,12.20
2023-11-06T21:20:18.154Z,12.10
2023-11-06T21:22:45.235Z,12.10
2023-11-06T21:25:15.330Z,12.10
2023-11-06T21:27:42.462Z,12.10
2023-11-06T21:30:12.042Z,12.10
2023-11-06T21:32:39.987Z,12.10
2023-11-06T21:35:07.729Z,12.10
2023-11-06T21:37:37.768Z,12.10
2023-11-06T21:40:05.140Z,12.10
2023-11-06T21:42:32.168Z,12.10
2023-11-06T21:44:59.182Z,12.10
2023-11-06T21:47:26.157Z,12.10
2023-11-06T21:49:53.601Z,12.10
2023-11-06T21:52:22.540Z,12.30
2023-11-06T21:54:54.689Z,12.10
2023-11-06T21:57:24.483Z,12.10
2023-11-06T21:59:51.507Z,12.10
2023-11-06T22:02:18.678Z,12.10
2023-11-06T22:04:45.991Z,12.10
2023-11-06T22:07:12.939Z,12.10
2023-11-06T22:09:39.870Z,12.10
2023-11-06T22:12:08.296Z,12.10
2023-11-06T22:14:35.225Z,12.10
2023-11-06T22:17:02.119Z,12.00
2023-11-06T22:19:29.098Z,12.00
2023-11-06T22:21:56.804Z,12.00
2023-11-06T22:24:23.754Z,12.00
2023-11-06T22:26:50.705Z,12.00
2023-11-06T22:29:17.945Z,12.00
2023-11-06T22:31:44.939Z,12.00
2023-11-06T22:34:11.887Z,12.00
2023-11-06T22:36:39.336Z,12.00
2023-11-06T22:39:06.618Z,12.00
2023-11-06T22:41:34.281Z,12.00
2023-11-06T22:44:04.262Z,12.00
2023-11-06T22:46:32.727Z,12.00
2023-11-06T22:49:00.700Z,12.00
2023-11-06T22:51:30.792Z,12.00
2023-11-06T22:53:58.037Z,12.00
2023-11-06T22:56:25.992Z,12.00
2023-11-06T22:58:56.300Z,11.80
2023-11-06T23:01:23.688Z,12.00
2023-11-06T23:03:52.656Z,12.00
2023-11-06T23:06:20.004Z,11.90
2023-11-06T23:08:48.181Z,12.00
2023-11-06T23:11:15.404Z,11.90
2023-11-06T23:13:42.278Z,11.90
2023-11-06T23:16:09.660Z,11.90
2023-11-06T23:18:38.879Z,11.90
2023-11-06T23:21:07.251Z,11.90
2023-11-06T23:23:34.255Z,11.90
2023-11-06T23:26:01.278Z,11.90
2023-11-06T23:28:28.173Z,11.90
2023-11-06T23:30:55.186Z,11.90
2023-11-06T23:33:22.298Z,11.90
2023-11-06T23:35:49.851Z,11.90
2023-11-06T23:38:16.807Z,11.90
2023-11-06T23:40:43.669Z,12.00
2023-11-06T23:43:10.491Z,11.90
2023-11-06T23:45:37.338Z,11.90
2023-11-06T23:48:04.637Z,11.90
2023-11-06T23:50:31.724Z,11.90
2023-11-06T23:52:58.599Z,11.90
2023-11-06T23:55:25.562Z,11.90
2023-11-06T23:57:52.425Z,11.90
